createdAt,value
2019-04-14T00:00:44.770Z,65.28
2019-04-14T00:04:50.768Z,65.69
2019-04-14T00:08:54.332Z,64.97
2019-04-14T00:12:57.784Z,65.63
2019-04-14T00:17:00.473Z,67.07
2019-04-14T00:21:04.354Z,66.44
2019-04-14T00:25:08.665Z,67.12
2019-04-14T00:29:11.555Z,66.67
2019-04-14T00:33:16.930Z,66.46
2019-04-14T00:37:35.775Z,67.45
2019-04-14T00:42:00.296Z,67.28
2019-04-14T00:46:05.956Z,68.51
2019-04-14T00:50:08.391Z,68.25
2019-04-14T00:54:11.061Z,67.21
2019-04-14T00:58:14.868Z,68.00
2019-04-14T01:02:17.343Z,67.65
2019-04-14T01:06:20.696Z,68.03
2019-04-14T01:10:23.587Z,68.86
2019-04-14T01:14:26.290Z,69.33
2019-04-14T01:18:29.852Z,69.16
2019-04-14T01:22:33.468Z,68.55
2019-04-14T01:26:35.861Z,68.25
2019-04-14T01:30:39.365Z,67.82
2019-04-14T01:34:43.313Z,68.87
2019-04-14T01:38:45.695Z,68.81
2019-04-14T01:42:48.603Z,69.31
2019-04-14T01:46:52.089Z,69.31
2019-04-14T01:51:07.067Z,70.32
2019-04-14T01:55:28.866Z,70.91
2019-04-14T01:59:32.580Z,71.27
2019-04-14T02:03:34.803Z,70.97
2019-04-14T02:07:38.267Z,71.52
2019-04-14T02:11:42.272Z,71.45
2019-04-14T02:15:44.857Z,71.41
2019-04-14T02:19:48.128Z,71.55
2019-04-14T02:23:51.783Z,73.18
2019-04-14T02:27:54.209Z,72.06
2019-04-14T02:32:25.553Z,71.87
2019-04-14T02:40:36.521Z,72.63
2019-04-14T02:44:38.415Z,72.69
2019-04-14T02:48:44.901Z,73.32
2019-04-14T02:52:46.538Z,72.70
2019-04-14T02:57:01.855Z,72.40
2019-04-14T03:01:00.143Z,72.48
2019-04-14T03:04:57.965Z,72.50
2019-04-14T03:09:15.363Z,72.75
2019-04-14T03:13:05.537Z,74.51
2019-04-14T03:17:31.662Z,74.38
2019-04-14T03:22:05.133Z,75.11
2019-04-14T03:26:15.464Z,75.01
2019-04-14T03:35:07.973Z,73.91
2019-04-14T03:39:00.843Z,73.94
2019-04-14T03:43:01.417Z,74.26
2019-04-14T03:51:13.713Z,74.35
2019-04-14T03:55:01.502Z,74.71
2019-04-14T03:58:48.601Z,74.23
2019-04-14T04:02:51.233Z,74.04
2019-04-14T04:06:53.549Z,74.07
2019-04-14T04:10:57.493Z,74.50
2019-04-14T04:14:59.874Z,74.05
2019-04-14T04:19:15.606Z,74.25
2019-04-14T04:23:40.240Z,74.69
2019-04-14T04:28:03.764Z,74.59
2019-04-14T04:32:16.522Z,74.49
2019-04-14T04:36:42.030Z,74.93
2019-04-14T04:40:44.488Z,74.25
2019-04-14T04:44:47.106Z,74.78
2019-04-14T04:49:01.978Z,74.48
2019-04-14T04:52:56.182Z,74.67
2019-04-14T04:56:58.517Z,74.01
2019-04-14T05:01:01.460Z,73.73
2019-04-14T05:05:07.676Z,73.48
2019-04-14T05:09:18.874Z,73.41
2019-04-14T05:13:25.253Z,72.41
2019-04-14T05:17:27.789Z,72.44
2019-04-14T05:21:32.489Z,70.60
2019-04-14T05:25:34.739Z,69.27
2019-04-14T05:29:36.897Z,68.03
2019-04-14T05:33:40.365Z,68.98
2019-04-14T05:37:42.625Z,67.55
2019-04-14T05:41:57.115Z,66.26
2019-04-14T05:45:50.041Z,66.43
2019-04-14T05:49:54.983Z,66.55
2019-04-14T05:53:57.620Z,67.05
2019-04-14T05:57:59.936Z,66.92
2019-04-14T06:02:02.584Z,67.31
2019-04-14T06:06:05.028Z,66.83
2019-04-14T06:10:07.664Z,65.38
2019-04-14T06:14:10.130Z,65.51
2019-04-14T06:18:12.397Z,65.93
2019-04-14T06:22:14.823Z,65.37
2019-04-14T06:26:17.241Z,66.50
2019-04-14T06:30:42.279Z,65.77
2019-04-14T06:35:02.229Z,65.36
2019-04-14T06:39:12.627Z,65.17
2019-04-14T06:43:14.795Z,64.44
2019-04-14T06:47:17.131Z,64.26
2019-04-14T06:51:19.514Z,64.36
2019-04-14T06:55:21.773Z,63.94
2019-04-14T06:59:24.002Z,62.98
2019-04-14T07:03:26.270Z,63.33
2019-04-14T07:07:28.466Z,62.50
2019-04-14T07:11:30.706Z,61.81
2019-04-14T07:15:33.032Z,61.24
2019-04-14T07:19:35.307Z,60.57
2019-04-14T07:23:37.637Z,60.79
2019-04-14T07:27:39.860Z,59.68
2019-04-14T07:31:56.313Z,59.25
2019-04-14T07:36:26.435Z,59.13
2019-04-14T07:40:50.273Z,58.56
2019-04-14T07:45:00.118Z,58.45
2019-04-14T07:49:14.608Z,59.17
2019-04-14T07:53:42.268Z,57.87
2019-04-14T07:58:09.581Z,55.58
2019-04-14T08:02:20.986Z,56.61
2019-04-14T08:06:23.200Z,54.75
2019-04-14T08:10:25.494Z,54.53
2019-04-14T08:14:27.728Z,52.98
2019-04-14T08:18:31.109Z,53.03
2019-04-14T08:22:33.306Z,53.16
2019-04-14T08:26:35.894Z,52.83
2019-04-14T08:30:38.115Z,52.98
2019-04-14T08:34:40.743Z,53.33
2019-04-14T08:38:42.944Z,53.53
2019-04-14T08:43:03.949Z,51.40
2019-04-14T08:47:31.028Z,51.91
2019-04-14T08:51:54.888Z,47.88
2019-04-14T08:56:21.842Z,47.47
2019-04-14T09:00:52.507Z,49.66
2019-04-14T09:04:59.177Z,49.37
2019-04-14T09:09:20.242Z,47.57
2019-04-14T09:13:22.707Z,48.17
2019-04-14T09:17:28.160Z,46.54
2019-04-14T09:21:30.384Z,47.67
2019-04-14T09:25:32.621Z,47.37
2019-04-14T09:29:34.847Z,46.22
2019-04-14T09:33:37.107Z,44.20
2019-04-14T09:37:39.347Z,45.29
2019-04-14T09:41:41.867Z,43.84
2019-04-14T09:45:44.119Z,43.79
2019-04-14T09:49:46.346Z,42.02
2019-04-14T09:53:48.526Z,41.83
2019-04-14T09:57:51.185Z,41.68
2019-04-14T10:01:53.382Z,41.48
2019-04-14T10:05:55.640Z,41.19
2019-04-14T10:09:57.907Z,39.19
2019-04-14T10:14:00.270Z,40.93
2019-04-14T10:18:02.529Z,39.96
2019-04-14T10:22:04.883Z,40.03
2019-04-14T10:26:07.113Z,41.00
2019-04-14T10:30:09.985Z,41.25
2019-04-14T10:34:12.181Z,40.33
2019-04-14T10:38:14.487Z,39.83
2019-04-14T10:42:16.721Z,39.14
2019-04-14T10:46:20.199Z,39.08
2019-04-14T10:50:30.817Z,40.47
2019-04-14T10:54:28.271Z,38.40
2019-04-14T10:58:30.486Z,38.37
2019-04-14T11:02:33.877Z,39.31
2019-04-14T11:06:39.520Z,39.13
2019-04-14T11:10:42.788Z,37.50
2019-04-14T11:14:45.358Z,37.68
2019-04-14T11:18:47.585Z,39.01
2019-04-14T11:23:02.521Z,37.72
2019-04-14T11:26:54.014Z,37.13
2019-04-14T11:30:56.295Z,36.55
2019-04-14T11:35:21.647Z,36.53
2019-04-14T11:39:24.086Z,36.35
2019-04-14T11:43:26.750Z,36.24
2019-04-14T11:47:28.978Z,37.96
2019-04-14T11:51:31.304Z,37.85
2019-04-14T11:55:33.500Z,37.88
2019-04-14T11:59:54.540Z,37.20
2019-04-14T12:04:14.394Z,37.24
2019-04-14T12:08:26.968Z,36.40
2019-04-14T12:12:29.168Z,37.13
2019-04-14T12:16:32.056Z,36.19
2019-04-14T12:20:34.333Z,36.61
2019-04-14T12:24:36.572Z,36.37
2019-04-14T12:28:38.760Z,36.62
2019-04-14T12:32:41.094Z,36.70
2019-04-14T12:36:43.320Z,37.16
2019-04-14T12:40:45.673Z,38.02
2019-04-14T12:45:06.663Z,36.53
2019-04-14T12:49:22.013Z,38.00
2019-04-14T12:53:25.534Z,36.18
2019-04-14T12:57:37.079Z,34.85
2019-04-14T13:01:43.928Z,35.55
2019-04-14T13:05:46.198Z,35.63
2019-04-14T13:09:50.902Z,34.52
2019-04-14T13:13:53.135Z,34.33
2019-04-14T13:17:56.305Z,34.70
2019-04-14T13:21:58.601Z,35.33
2019-04-14T13:26:00.986Z,35.87
2019-04-14T13:30:03.411Z,35.38
2019-04-14T13:34:06.911Z,35.42
2019-04-14T13:38:09.517Z,34.37
2019-04-14T13:42:12.421Z,34.48
2019-04-14T13:46:15.665Z,34.56
2019-04-14T13:50:18.701Z,36.00
2019-04-14T13:54:21.828Z,35.38
2019-04-14T13:58:24.584Z,35.35
2019-04-14T14:02:26.823Z,35.43
2019-04-14T14:06:29.526Z,34.38
2019-04-14T14:10:35.212Z,33.20
2019-04-14T14:15:05.088Z,35.10
2019-04-14T14:19:20.134Z,34.93
2019-04-14T14:23:30.049Z,35.25
2019-04-14T14:27:32.786Z,35.63
2019-04-14T14:31:36.638Z,35.12
2019-04-14T14:35:39.435Z,34.04
2019-04-14T14:39:42.074Z,34.21
2019-04-14T14:43:46.072Z,34.25
2019-04-14T14:48:02.214Z,35.73
2019-04-14T14:52:09.260Z,36.06
2019-04-14T14:56:11.664Z,36.02
2019-04-14T15:00:34.322Z,36.36
2019-04-14T15:04:36.516Z,37.31
2019-04-14T15:08:38.782Z,36.71
2019-04-14T15:12:42.082Z,34.33
2019-04-14T15:16:44.431Z,33.35
2019-04-14T15:20:46.849Z,31.76
2019-04-14T15:24:49.195Z,30.31
2019-04-14T15:28:51.391Z,30.48
2019-04-14T15:32:53.665Z,29.04
2019-04-14T15:36:55.923Z,29.26
2019-04-14T15:40:58.254Z,28.75
2019-04-14T15:45:00.437Z,28.82
2019-04-14T15:49:03.919Z,28.57
2019-04-14T15:53:06.140Z,29.54
2019-04-14T15:57:23.761Z,30.16
2019-04-14T16:01:51.675Z,32.95
2019-04-14T16:06:01.759Z,34.47
2019-04-14T16:10:22.760Z,37.15
2019-04-14T16:14:44.884Z,37.56
2019-04-14T16:19:06.015Z,38.24
2019-04-14T16:23:08.350Z,39.46
2019-04-14T16:27:23.616Z,39.31
2019-04-14T16:31:43.277Z,39.48
2019-04-14T16:35:46.319Z,40.10
2019-04-14T16:39:48.601Z,41.43
2019-04-14T16:43:50.783Z,41.26
2019-04-14T16:47:53.005Z,42.16
2019-04-14T16:52:05.810Z,44.27
2019-04-14T16:56:37.361Z,46.04
2019-04-14T17:00:43.131Z,47.38
2019-04-14T17:04:45.426Z,48.89
2019-04-14T17:08:47.658Z,49.23
2019-04-14T17:12:49.882Z,50.15
2019-04-14T17:17:04.102Z,49.27
2019-04-14T17:21:28.507Z,50.84
2019-04-14T17:25:36.778Z,50.92
2019-04-14T17:29:54.844Z,51.09
2019-04-14T17:34:11.374Z,51.73
2019-04-14T17:38:38.787Z,51.27
2019-04-14T17:42:48.617Z,51.40
2019-04-14T17:47:25.206Z,51.85
2019-04-14T17:51:34.082Z,52.97
2019-04-14T17:55:49.971Z,53.72
2019-04-14T18:00:10.000Z,54.06
2019-04-14T18:04:31.582Z,54.93
2019-04-14T18:08:55.586Z,55.46
2019-04-14T18:13:05.168Z,55.53
2019-04-14T18:17:23.418Z,56.05
2019-04-14T18:21:25.777Z,56.08
2019-04-14T18:25:29.798Z,56.72
2019-04-14T18:29:57.355Z,57.74
2019-04-14T18:34:12.484Z,57.86
2019-04-14T18:38:29.797Z,57.85
2019-04-14T18:42:39.014Z,58.29
2019-04-14T18:46:59.803Z,58.82
2019-04-14T18:51:12.318Z,59.85
2019-04-14T18:55:26.334Z,59.54
2019-04-14T18:59:38.825Z,59.65
2019-04-14T19:03:48.300Z,60.35
2019-04-14T19:07:52.295Z,60.57
2019-04-14T19:12:12.780Z,61.61
2019-04-14T19:16:38.539Z,62.29
2019-04-14T19:20:31.931Z,61.76
2019-04-14T19:24:35.200Z,61.21
2019-04-14T19:28:38.990Z,62.12
2019-04-14T19:32:42.572Z,61.95
2019-04-14T19:36:45.718Z,63.63
2019-04-14T19:40:48.131Z,63.22
2019-04-14T19:44:50.593Z,64.32
2019-04-14T19:48:53.182Z,65.58
2019-04-14T19:52:55.697Z,66.16
2019-04-14T19:56:58.133Z,65.54
2019-04-14T20:01:00.830Z,65.70
2019-04-14T20:05:03.486Z,66.51
2019-04-14T20:09:07.864Z,66.77
2019-04-14T20:13:11.483Z,67.54
2019-04-14T20:17:28.048Z,68.70
2019-04-14T20:21:49.517Z,68.13
2019-04-14T20:26:23.241Z,68.38
2019-04-14T20:30:33.501Z,68.62
2019-04-14T20:34:36.201Z,69.09
2019-04-14T20:38:40.499Z,69.27
2019-04-14T20:42:43.129Z,70.24
2019-04-14T20:46:45.806Z,70.19
2019-04-14T20:50:48.374Z,70.21
2019-04-14T20:54:51.164Z,70.54
2019-04-14T20:58:53.874Z,70.63
2019-04-14T21:03:19.030Z,71.06
2019-04-14T21:07:43.097Z,72.11
2019-04-14T21:12:07.184Z,71.39
2019-04-14T21:16:14.568Z,71.55
2019-04-14T21:20:33.653Z,72.10
2019-04-14T21:24:55.293Z,72.33
2019-04-14T21:29:19.386Z,72.28
2019-04-14T21:33:39.894Z,72.51
2019-04-14T21:38:04.193Z,71.96
2019-04-14T21:42:07.536Z,72.38
2019-04-14T21:46:10.237Z,72.49
2019-04-14T21:50:13.195Z,72.84
2019-04-14T21:54:16.001Z,72.82
2019-04-14T21:58:55.939Z,73.56
2019-04-14T22:03:16.550Z,73.59
2019-04-14T22:07:38.439Z,74.39
2019-04-14T22:11:41.029Z,74.04
2019-04-14T22:15:43.475Z,74.17
2019-04-14T22:19:46.172Z,74.63
2019-04-14T22:24:00.381Z,74.88
2019-04-14T22:27:54.258Z,74.72
2019-04-14T22:31:57.221Z,75.20
2019-04-14T22:35:59.958Z,75.41
2019-04-14T22:40:02.686Z,75.67
2019-04-14T22:44:05.411Z,75.87
2019-04-14T22:48:08.030Z,76.15
2019-04-14T22:52:10.492Z,77.14
2019-04-14T22:56:13.138Z,77.06
2019-04-14T23:00:29.419Z,77.62
2019-04-14T23:04:41.877Z,78.28
2019-04-14T23:08:52.241Z,77.59
2019-04-14T23:13:19.713Z,77.66
2019-04-14T23:17:43.804Z,77.99
2019-04-14T23:21:57.456Z,78.52
2019-04-14T23:26:00.102Z,79.05
2019-04-14T23:30:02.771Z,78.75
2019-04-14T23:34:05.675Z,79.25
2019-04-14T23:38:08.522Z,79.19
2019-04-14T23:42:11.287Z,79.20
2019-04-14T23:46:14.141Z,78.90
2019-04-14T23:50:16.658Z,78.88
2019-04-14T23:54:19.404Z,78.91
2019-04-14T23:58:21.925Z,78.98
